• Join FlightAware (Why Join?)
  • Login
  • US Flag 
06:35PM EDT


 

Airport Tracker/Info


-or-


 

Live Flight TrackerFlight Track Log ✈ EJA871 ✈ 09-May-2013 ✈ KLAS - KMKE

Flight Track Log - Related Links

Times and Time Zones

All times are in EDT time to prevent confusion due to time zone crossing. See the EJA871 flight status page for this flight to view local times or setup timezone preferences in your user account.

Time Position Orientation Groundspeed Altitude Reporting Facility
EDT Latitude Longitude Course Direction KTS MPH feet Rate Location/Type
01:38PM 36.1172 -115.1492 53° Northeast 199 229 3,500  Level Los Angeles Center
01:40PM 36.1556 -115.0861 53° Northeast 243 280 7,600 3,360 Climbing Los Angeles Center
01:41PM 36.1439 -114.9983 99° East 238 274 11,400 3,000 Climbing Los Angeles Center
01:42PM 36.1494 -114.9083 86° East 259 298 14,100 2,400 Climbing Los Angeles Center
01:43PM 36.1617 -114.8058 82° East 295 339 16,400 2,100 Climbing Los Angeles Center
01:44PM 36.1878 -114.6972 73° East 320 368 18,500 2,220 Climbing Los Angeles Center
01:45PM 36.1889 -114.5792 89° East 344 396 21,100 2,520 Climbing Los Angeles Center
01:46PM 36.1903 -114.4361 89° East 347 399 23,800 2,100 Climbing Los Angeles Center
01:47PM 36.1925 -114.3139 89° East 355 409 25,900 1,860 Climbing Los Angeles Center
01:48PM 36.2453 -114.1792 64° Northeast 370 426 28,100 1,440 Climbing Los Angeles Center
01:49PM 36.3139 -114.0819 49° Northeast 377 434 29,000 840 Climbing Los Angeles Center
01:50PM 36.3864 -113.9369 58° Northeast 412 474 29,900 1,140 Climbing Los Angeles Center
01:51PM 36.4475 -113.8178 57° Northeast 411 473 31,400 1,440 Climbing Los Angeles Center
01:52PM 36.5053 -113.7033 58° Northeast 396 456 32,900 1,500 Climbing Los Angeles Center
01:53PM 36.5678 -113.5797 58° Northeast 389 448 34,500 1,320 Climbing Los Angeles Center
01:54PM 36.6214 -113.4675 59° Northeast 381 438 35,700 960 Climbing Los Angeles Center
01:55PM 36.6783 -113.3561 57° Northeast 383 441 36,600 780 Climbing Los Angeles Center
01:57PM 36.7231 -113.2658 58° Northeast 384 442 37,400 960 Climbing Los Angeles Center
01:58PM 36.7783 -113.1539 58° Northeast 382 440 38,600 720 Climbing Los Angeles Center
01:59PM 36.8544 -113.0014 58° Northeast 374 430 39,000 120 Climbing Los Angeles Center
02:00PM 36.9117 -112.8850 58° Northeast 390 449 39,000  Level Los Angeles Center
02:01PM 36.9833 -112.7400 58° Northeast 409 471 39,000  Level Los Angeles Center
02:02PM 37.0356 -112.6081 64° Northeast 423 487 39,000  Level Los Angeles Center
02:03PM 37.0850 -112.4717 66° East 431 496 39,000  Level Los Angeles Center
02:04PM 37.1458 -112.3067 65° Northeast 438 504 39,000  Level Los Angeles Center
02:05PM 37.1950 -112.1678 66° East 438 504 39,000  Level Los Angeles Center
02:06PM 37.2447 -112.0281 66° East 441 507 39,000  Level Los Angeles Center
02:07PM 37.2953 -111.8897 65° Northeast 439 505 39,000  Level Los Angeles Center
02:08PM 37.3258 -111.8064 65° Northeast 439 505 39,000  Level Denver Center
02:09PM 37.3828 -111.6400 67° East 435 501 39,000  Level Denver Center
02:10PM 37.4322 -111.5011 66° East 437 503 39,000  Level Denver Center
02:11PM 37.4700 -111.3894 67° East 438 504 39,000  Level Denver Center
02:12PM 37.5289 -111.2219 66° East 439 505 39,000  Level Denver Center
02:13PM 37.5778 -111.0822 66° East 438 504 39,000  Level Denver Center
02:14PM 37.6258 -110.9422 67° East 437 503 39,000  Level Denver Center
02:15PM 37.6844 -110.7739 66° East 436 502 39,000  Level Denver Center
02:16PM 37.7331 -110.6325 66° East 439 505 39,000  Level Denver Center
02:17PM 37.7803 -110.4914 67° East 438 504 39,000  Level Denver Center
02:18PM 37.8336 -110.3331 67° East 438 504 39,000  Level Denver Center
02:19PM 37.8875 -110.1739 67° East 440 506 39,000  Level Denver Center
02:20PM 37.9250 -110.0611 67° East 438 504 39,000  Level Denver Center
02:21PM 37.9872 -109.8789 67° East 440 506 39,000  Level Denver Center
02:22PM 38.0394 -109.7175 68° East 442 509 39,000  Level Denver Center
02:23PM 38.0878 -109.5731 67° East 441 507 39,000  Level Denver Center
02:24PM 38.1319 -109.4358 68° East 440 506 39,000  Level Denver Center
02:25PM 38.1836 -109.2769 67° East 437 503 39,000  Level Denver Center
02:27PM 38.2278 -109.1386 68° East 441 507 39,000  Level Denver Center
02:28PM 38.2792 -108.9786 68° East 438 504 39,000  Level Denver Center
02:29PM 38.3244 -108.8428 67° East 436 502 39,000  Level Denver Center
02:30PM 38.3750 -108.6817 68° East 437 503 39,000  Level Denver Center
02:31PM 38.4186 -108.5456 68° East 436 502 39,000  Level Denver Center
02:32PM 38.4703 -108.3847 68° East 441 507 39,000  Level Denver Center
02:33PM 38.5136 -108.2469 68° East 439 505 39,000  Level Denver Center
02:34PM 38.5561 -108.1075 69° East 441 507 39,000  Level Denver Center
02:35PM 38.6064 -107.9447 68° East 442 509 39,000  Level Denver Center
02:36PM 38.6492 -107.8069 68° East 438 504 39,000  Level Denver Center
02:37PM 38.7000 -107.6442 68° East 441 507 39,000  Level Denver Center
02:38PM 38.7425 -107.5064 68° East 438 504 39,000  Level Denver Center
02:39PM 38.7906 -107.3458 69° East 435 501 39,000  Level Denver Center
02:40PM 38.8336 -107.2067 68° East 437 503 39,000  Level Denver Center
02:41PM 38.8778 -107.0578 69° East 435 501 39,000  Level Denver Center
02:42PM 38.9233 -106.9061 69° East 438 504 39,000  Level Denver Center
02:43PM 38.9714 -106.7439 69° East 436 502 39,000  Level Denver Center
02:44PM 39.0122 -106.6036 69° East 437 503 39,000  Level Denver Center
02:45PM 39.0611 -106.4414 69° East 436 502 39,000  Level Denver Center
02:46PM 39.1022 -106.3028 69° East 434 499 39,000  Level Denver Center
02:47PM 39.1442 -106.1597 69° East 432 497 39,000  Level Denver Center
02:48PM 39.1878 -106.0100 69° East 435 501 39,000  Level Denver Center
02:49PM 39.2281 -105.8678 70° East 434 499 39,000  Level Denver Center
02:50PM 39.2864 -105.6619 70° East 436 502 39,000  Level Denver Center
02:52PM 39.3286 -105.5133 70° East 440 506 39,000  Level Denver Center
02:53PM 39.3750 -105.3519 70° East 446 513 39,000  Level Denver Center
02:54PM 39.4164 -105.2042 70° East 440 506 39,000  Level Denver Center
02:55PM 39.4575 -105.0550 70° East 445 512 39,000  Level Denver Center
02:56PM 39.5008 -104.8958 71° East 439 505 39,000  Level Denver Center
02:57PM 39.5422 -104.7478 70° East 440 506 39,000  Level Denver Center
02:58PM 39.5856 -104.5889 70° East 437 503 39,000  Level Denver Center
02:59PM 39.6250 -104.4417 71° East 437 503 39,000  Level Denver Center
03:00PM 39.6689 -104.2828 70° East 437 503 39,000  Level Denver Center
03:01PM 39.7083 -104.1344 71° East 438 504 39,000  Level Denver Center
03:02PM 39.7508 -103.9739 71° East 439 505 39,000  Level Denver Center
03:03PM 39.7917 -103.8236 70° East 441 507 39,000  Level Denver Center
03:04PM 39.8289 -103.6831 71° East 424 488 39,000  Level Denver Center
03:05PM 39.8736 -103.5164 71° East 436 502 39,000  Level Denver Center
03:06PM 39.9136 -103.3619 71° East 441 507 39,000  Level Denver Center
03:07PM 39.9508 -103.2164 72° East 443 510 39,000  Level Denver Center
03:08PM 39.9953 -103.0456 71° East 445 512 39,000  Level Denver Center
03:09PM 40.0322 -102.8989 72° East 446 513 39,000  Level Denver Center
03:10PM 40.0639 -102.7772 71° East 445 512 39,000  Level Denver Center
03:11PM 40.1133 -102.5808 72° East 448 516 39,000  Level Denver Center
03:12PM 40.1444 -102.4575 72° East 449 517 39,000  Level Denver Center
03:13PM 40.1942 -102.2597 72° East 450 518 39,000  Level Denver Center
03:14PM 40.2364 -102.0853 72° East 451 519 39,000  Level Denver Center
03:15PM 40.2750 -101.9372 71° East 449 517 39,000  Level Denver Center
03:16PM 40.3106 -101.7872 73° East 451 519 39,000  Level Denver Center
03:17PM 40.3531 -101.6119 72° East 455 524 39,000  Level Denver Center
03:18PM 40.3894 -101.4631 72° East 451 519 39,000  Level Denver Center
03:19PM 40.4311 -101.2889 73° East 449 517 39,000  Level Denver Center
03:20PM 40.4664 -101.1378 73° East 453 521 39,000  Level Denver Center
03:21PM 40.5078 -100.9633 73° East 451 519 39,000  Level Denver Center
03:22PM 40.5425 -100.8136 73° East 451 519 39,000  Level Denver Center
03:23PM 40.5828 -100.6394 73° East 452 520 39,000  Level Denver Center
03:24PM 40.6119 -100.5153 73° East 451 519 39,000  Level Denver Center
03:26PM 40.6592 -100.3158 73° East 450 518 39,000  Level Denver Center
03:27PM 40.6928 -100.1653 74° East 450 518 39,000  Level Denver Center
03:28PM 40.7328 -99.9889 73° East 451 519 39,000  Level Denver Center
03:29PM 40.7683 -99.8300 73° East 451 519 39,000  Level Denver Center
03:30PM 40.8039 -99.6714 73° East 451 519 39,000  Level Denver Center
03:31PM 40.8392 -99.5114 74° East 453 521 39,000  Level Denver Center
03:32PM 40.8744 -99.3531 74° East 452 520 39,000  Level Denver Center
03:33PM 40.9081 -99.1944 74° East 450 518 39,000  Level Denver Center
03:34PM 40.9433 -99.0358 74° East 450 518 39,000  Level Minneapolis Center
03:35PM 40.9761 -98.8764 75° East 450 518 39,000  Level Minneapolis Center
03:36PM 41.0108 -98.7153 74° East 453 521 39,000  Level Minneapolis Center
03:38PM 41.0831 -98.3747 74° East 454 522 39,000  Level Minneapolis Center
03:39PM 41.1236 -98.1831 74° East 453 521 39,000  Level Minneapolis Center
03:40PM 41.1567 -98.0208 75° East 456 525 39,000  Level Minneapolis Center
03:41PM 41.1900 -97.8597 75° East 455 524 39,000  Level Minneapolis Center
03:42PM 41.2294 -97.6644 75° East 456 525 39,000  Level Minneapolis Center
03:43PM 41.2625 -97.5042 75° East 453 521 39,000  Level Minneapolis Center
03:44PM 41.2908 -97.3614 75° East 453 521 39,000  Level Minneapolis Center
03:45PM 41.3283 -97.1686 75° East 449 517 39,000  Level Minneapolis Center
03:46PM 41.3544 -97.0400 75° East 449 517 39,000  Level Minneapolis Center
03:47PM 41.3911 -96.8497 76° East 444 511 39,000  Level Minneapolis Center
03:49PM 41.4303 -96.6439 76° East 442 509 39,000  Level Minneapolis Center
03:50PM 41.4581 -96.5025 75° East 438 504 39,000  Level Minneapolis Center
03:51PM 41.4911 -96.3272 76° East 437 503 39,000  Level Minneapolis Center
03:52PM 41.5200 -96.1675 76° East 441 507 39,000  Level Minneapolis Center
03:53PM 41.5506 -96.0108 75° East 437 503 39,000  Level Minneapolis Center
03:54PM 41.5789 -95.8514 77° East 440 506 39,000  Level Minneapolis Center
03:55PM 41.6092 -95.6942 76° East 437 503 39,000  Level Minneapolis Center
03:56PM 41.6425 -95.5097 76° East 441 507 39,000  Level Minneapolis Center
03:57PM 41.6706 -95.3500 77° East 441 507 39,000  Level Minneapolis Center
03:58PM 41.7061 -95.1572 76° East 443 510 39,000  Level Minneapolis Center
03:59PM 41.7339 -94.9969 77° East 442 509 39,000  Level Minneapolis Center
04:00PM 41.7628 -94.8364 76° East 442 509 39,000  Level Minneapolis Center
04:01PM 41.7850 -94.7075 77° East 444 511 39,000  Level Minneapolis Center
04:02PM 41.8233 -94.4814 77° East 445 512 39,000  Level Minneapolis Center
04:03PM 41.8514 -94.3200 77° East 444 511 39,000  Level Minneapolis Center
04:04PM 41.8800 -94.1567 77° East 448 516 39,000  Level Minneapolis Center
04:05PM 41.9064 -93.9947 78° East 447 514 39,000  Level Minneapolis Center
04:06PM 41.9319 -93.8342 78° East 448 516 39,000  Level Minneapolis Center
04:07PM 41.9606 -93.6567 78° East 450 518 39,000  Level Minneapolis Center
04:08PM 41.9878 -93.4936 77° East 451 519 39,000  Level Minneapolis Center
04:09PM 42.0194 -93.2981 78° East 450 518 39,000  Level Minneapolis Center
04:10PM 42.0464 -93.1325 78° East 456 525 39,000  Level Minneapolis Center
04:11PM 42.0722 -92.9669 78° East 457 526 39,000  Level Minneapolis Center
04:13PM 42.0975 -92.8028 78° East 454 522 39,000  Level Minneapolis Center
04:14PM 42.1183 -92.6717 78° East 454 522 39,000  Level Minneapolis Center
04:15PM 42.1536 -92.4408 78° East 454 522 39,000 -480 Level Minneapolis Center
04:16PM 42.1786 -92.2753 78° East 456 525 38,100 -1,200 Descending Minneapolis Center
04:17PM 42.2031 -92.1089 79° East 456 525 36,600 -1,500 Descending Minneapolis Center
04:18PM 42.2286 -91.9389 78° East 464 534 35,100 -1,500 Descending Chicago Center
04:19PM 42.2525 -91.7689 79° East 466 536 33,600 -1,500 Descending Chicago Center
04:20PM 42.2781 -91.5972 79° East 472 543 32,100 -1,560 Descending Chicago Center
04:21PM 42.3081 -91.3878 79° East 479 551 30,400 -1,020 Descending Chicago Center
04:22PM 42.3317 -91.2172 79° East 475 547 30,000 -720 Descending Chicago Center
04:23PM 42.3558 -91.0394 80° East 487 560 29,000 -540 Descending Chicago Center
04:24PM 42.3808 -90.8594 79° East 494 568 29,000  Level Chicago Center
04:25PM 42.4089 -90.6406 80° East 500 575 29,000 -840 Level Chicago Center
04:26PM 42.4258 -90.4597 83° East 496 571 27,300 -960 Descending Chicago Center
04:27PM 42.4436 -90.2836 82° East 483 556 27,000 -1,020 Descending Chicago Center
04:28PM 42.4628 -90.1056 82° East 483 556 25,200 -1,080 Descending Chicago Center
04:29PM 42.4828 -89.8950 83° East 477 549 24,900 -960 Descending Chicago Center
04:30PM 42.5006 -89.7161 82° East 467 537 23,300 -1,800 Descending Chicago Center
04:31PM 42.5167 -89.5433 83° East 464 534 21,200 -1,620 Descending Chicago Center
04:32PM 42.5331 -89.3764 82° East 451 519 20,000 -600 Descending Chicago Center
04:33PM 42.5475 -89.2150 83° East 435 501 20,000  Level Chicago Center
04:34PM 42.5675 -89.0506 81° East 441 507 20,000 -1,380 Level Chicago Center
04:35PM 42.6011 -88.8642 76° East 439 505 17,200 -3,000 Descending Chicago Center
04:36PM 42.6297 -88.7117 76° East 421 484 13,800 -2,520 Descending Chicago Center
04:37PM 42.6553 -88.5761 76° East 377 434 12,100 -1,440 Descending Chicago Center
04:38PM 42.6781 -88.4650 74° East 316 364 10,900 -1,500 Descending Chicago Center
04:39PM 42.6942 -88.3603 78° East 291 335 9,100 -1,920 Descending Chicago Center
04:40PM 42.7328 -88.2486 65° Northeast 301 346 7,000 -1,800 Descending Chicago Center
04:41PM 42.8097 -88.2319 North 291 335 5,400 -1,740 Descending Chicago Center
04:42PM 42.8697 -88.1772 34° Northeast 261 300 3,500 -1,320 Descending Chicago Center
04:44PM 42.8942 -88.0978 67° East 237 273 2,700 -480 Descending Chicago Center
04:44PM 42.9000 -88.0500 81° East 164 189 2,700 -600 Level KMKE
04:45PM 42.9167 -87.9833 71° East 154 177 1,700 -840 Descending KMKE
04:47PM 42.9333 -87.9333 66° East 122 140 900 -660 Descending KMKE
04:49PM 42.9333 -87.8833 56° Northeast  Level FlightAware Approximate